Aviation Digital Data Service (ADDS)

Output produced by METARs form (0111 UTC 24 March 2019)
found at http://aviationweather.gov/metar/data/
 
METAR text: KDKB 240055Z AUTO 16005KT 10SM CLR 06/00 A3022 RMK AO2 T00551001
Conditions at: KDKB (DE KALB , IL, US) observed 0055 UTC 24 March 2019
Temperature: 5.5°C (42°F)
Dewpoint: -0.1°C (32°F) [RH = 67%]
Pressure (altimeter): 30.22 inches Hg (1023.5 mb)
Winds: from the SSE (160 degrees) at 6 MPH (5 knots; 2.6 m/s)
Visibility: 10 or more miles (16+ km)
Ceiling: at least 12,000 feet AGL
Clouds: sky clear below 12,000 feet AGL
Weather: automated observation with no human augmentation;
there may or may not be significant weather present at this time